Magnate — H9ZN — position and weather

sailwx.info

Track history (hours):
 
Tides and Currents Weather Stations Pressure Air Temp Water Temp Dewpoint Dewpoint Depression Visibility Wind Speed Wind Dir Waves Ship Positions

Magnate

Last reported at 2016-Sep-28 16:33 UTC. Time now 2016-Sep-28 17:10 UTC.
Position N 49°59' W 002°54'.

Length 140 m; draft 7 m.

Type: Cargo ship. MMSI: 357055000.

Date/timePositionNaut miles runAvg speedWind from/ knotsBaromVisibWave heightAir tempDewpointWater temp
2016-Sep-28 16:33N 49°59' W 002°54'9 9.4
2016-Sep-28 15:33N 50°02' W 002°40'3611.9
2016-Sep-28 12:33N 50°11' W 001°46'9810.9
2016-Sep-28 03:31N 50°39' E 000°41'1211.9
2016-Sep-28 02:33N 50°45' E 000°56'1311.8
2016-Sep-28 01:25N 50°53' E 001°14'1910.1
2016-Sep-27 23:33N 51°06' E 001°35'41 9.8
2016-Sep-27 19:25N 51°39' E 002°15'9110.1
2016-Sep-27 10:25N 53°01' E 003°18'29111.2
2016-Sep-26 08:32N 57°05' E 007°54'109 9.9
2016-Sep-25 21:33N 57°39' E 011°06'4912.4
2016-Sep-25 17:33N 56°55' E 011°48'1212.0
2016-Sep-25 16:33N 56°44' E 011°55'1212.1
2016-Sep-25 15:33N 56°32' E 011°59'1211.8
2016-Sep-25 14:33N 56°21' E 012°07'2311.6
2016-Sep-25 12:34N 56°05' E 012°37'1110.6
2016-Sep-25 11:33N 55°54' E 012°39'1111.0
2016-Sep-25 10:33N 55°43' E 012°41'10 9.9
2016-Sep-25 09:34N 55°33' E 012°42'18 9.0
2016-Sep-25 07:33N 55°16' E 012°51'3612.0
2016-Sep-25 04:33N 55°13' E 013°54'4310.8
2016-Sep-25 00:34N 55°31' E 015°04'36011.3
2016-Sep-23 16:33N 59°37' E 023°16'1212.0
2016-Sep-23 15:33N 59°40' E 023°38'2412.0
2016-Sep-23 13:34N 59°47' E 024°24'8311.9
2016-Sep-23 06:33N 60°01' E 027°07'2411.9
2016-Sep-23 04:33N 60°12' E 027°49'1211.9
2016-Sep-23 03:33N 60°09' E 028°13'1111.3
2016-Sep-23 02:33N 60°03' E 028°32'1211.9
2016-Sep-23 01:33N 60°03' E 028°56'2511.1
2016-Sep-22 23:17N 59°59' E 029°46'14 5.1
2016-Sep-22 20:33N 59°53' E 030°11'0 0.0
2016-Sep-22 12:33N 59°53' E 030°11'0 0.0
2016-Sep-22 04:33N 59°53' E 030°11'0 0.3
2016-Sep-22 03:33N 59°53' E 030°11'86 4.8
2016-Sep-21 09:33N 60°04' E 027°21'1311.8
2016-Sep-21 08:30N 59°58' E 026°58'3612.1
2016-Sep-21 05:29N 59°52' E 025°47'2912.3
2016-Sep-21 03:07N 59°46' E 024°50'812.2
2016-Sep-21 02:27N 59°45' E 024°34'31611.6
2016-Sep-19 23:06N 55°17' E 019°20'4412.5
2016-Sep-19 19:33N 54°36' E 018°54'1110.9
2016-Sep-19 18:33N 54°32' E 018°36'2 0.8
2016-Sep-19 16:29N 54°32' E 018°34'0 0.0
2016-Sep-19 14:32N 54°32' E 018°34'0 0.0
2016-Sep-19 13:32N 54°32' E 018°34'0 0.0
2016-Sep-19 12:32N 54°32' E 018°34'0 0.0
2016-Sep-19 11:32N 54°32' E 018°34'0 0.0
2016-Sep-19 09:32N 54°32' E 018°34'0 0.0
2016-Sep-19 07:32N 54°32' E 018°34'0 0.0
2016-Sep-19 06:32N 54°32' E 018°34'0 0.0
2016-Sep-19 03:32N 54°32' E 018°34'0 0.0
2016-Sep-19 02:32N 54°32' E 018°34'5 2.6
2016-Sep-19 00:33N 54°32' E 018°42'34 6.8
2016-Sep-18 19:33N 54°56' E 018°01'  
Track history (hours):
 
Tides and Currents Weather Stations Pressure Air Temp Water Temp Dewpoint Dewpoint Depression Visibility Wind Speed Wind Dir Waves Ship Positions

Magnate

Last reported at 2016-Sep-28 16:33 UTC. Time now 2016-Sep-28 17:10 UTC.
Position N 49°59' W 002°54'.

Length 140 m; draft 7 m.

Type: Cargo ship. MMSI: 357055000.

Date/timePositionNaut miles runAvg speedWind from/ knotsBaromVisibWave heightAir tempDewpointWater temp
2016-Sep-28 16:33N 49°59' W 002°54'9 9.4
2016-Sep-28 15:33N 50°02' W 002°40'3611.9
2016-Sep-28 12:33N 50°11' W 001°46'9810.9
2016-Sep-28 03:31N 50°39' E 000°41'1211.9
2016-Sep-28 02:33N 50°45' E 000°56'1311.8
2016-Sep-28 01:25N 50°53' E 001°14'1910.1
2016-Sep-27 23:33N 51°06' E 001°35'41 9.8
2016-Sep-27 19:25N 51°39' E 002°15'9110.1
2016-Sep-27 10:25N 53°01' E 003°18'29111.2
2016-Sep-26 08:32N 57°05' E 007°54'109 9.9
2016-Sep-25 21:33N 57°39' E 011°06'4912.4
2016-Sep-25 17:33N 56°55' E 011°48'1212.0
2016-Sep-25 16:33N 56°44' E 011°55'1212.1
2016-Sep-25 15:33N 56°32' E 011°59'1211.8
2016-Sep-25 14:33N 56°21' E 012°07'2311.6
2016-Sep-25 12:34N 56°05' E 012°37'1110.6
2016-Sep-25 11:33N 55°54' E 012°39'1111.0
2016-Sep-25 10:33N 55°43' E 012°41'10 9.9
2016-Sep-25 09:34N 55°33' E 012°42'18 9.0
2016-Sep-25 07:33N 55°16' E 012°51'3612.0
2016-Sep-25 04:33N 55°13' E 013°54'4310.8
2016-Sep-25 00:34N 55°31' E 015°04'36011.3
2016-Sep-23 16:33N 59°37' E 023°16'1212.0
2016-Sep-23 15:33N 59°40' E 023°38'2412.0
2016-Sep-23 13:34N 59°47' E 024°24'8311.9
2016-Sep-23 06:33N 60°01' E 027°07'2411.9
2016-Sep-23 04:33N 60°12' E 027°49'1211.9
2016-Sep-23 03:33N 60°09' E 028°13'1111.3
2016-Sep-23 02:33N 60°03' E 028°32'1211.9
2016-Sep-23 01:33N 60°03' E 028°56'2511.1
2016-Sep-22 23:17N 59°59' E 029°46'14 5.1
2016-Sep-22 20:33N 59°53' E 030°11'0 0.0
2016-Sep-22 12:33N 59°53' E 030°11'0 0.0
2016-Sep-22 04:33N 59°53' E 030°11'0 0.3
2016-Sep-22 03:33N 59°53' E 030°11'86 4.8
2016-Sep-21 09:33N 60°04' E 027°21'1311.8
2016-Sep-21 08:30N 59°58' E 026°58'3612.1
2016-Sep-21 05:29N 59°52' E 025°47'2912.3
2016-Sep-21 03:07N 59°46' E 024°50'812.2
2016-Sep-21 02:27N 59°45' E 024°34'31611.6
2016-Sep-19 23:06N 55°17' E 019°20'4412.5
2016-Sep-19 19:33N 54°36' E 018°54'1110.9
2016-Sep-19 18:33N 54°32' E 018°36'2 0.8
2016-Sep-19 16:29N 54°32' E 018°34'0 0.0
2016-Sep-19 14:32N 54°32' E 018°34'0 0.0
2016-Sep-19 13:32N 54°32' E 018°34'0 0.0
2016-Sep-19 12:32N 54°32' E 018°34'0 0.0
2016-Sep-19 11:32N 54°32' E 018°34'0 0.0
2016-Sep-19 09:32N 54°32' E 018°34'0 0.0
2016-Sep-19 07:32N 54°32' E 018°34'0 0.0
2016-Sep-19 06:32N 54°32' E 018°34'0 0.0
2016-Sep-19 03:32N 54°32' E 018°34'0 0.0
2016-Sep-19 02:32N 54°32' E 018°34'5 2.6
2016-Sep-19 00:33N 54°32' E 018°42'34 6.8
2016-Sep-18 19:33N 54°56' E 018°01'  

Dump ship's entire track history